sensor_id;sensor_type;location;lat;lon;timestamp;P1;durP1;ratioP1;P2;durP2;ratioP2
51312;SDS011;37397;53.226;10.400;2023-03-14T00:00:17;9.25;;;3.05;;
51312;SDS011;37397;53.226;10.400;2023-03-14T00:02:44;7.82;;;2.58;;
51312;SDS011;37397;53.226;10.400;2023-03-14T00:05:11;7.93;;;3.00;;
51312;SDS011;37397;53.226;10.400;2023-03-14T00:07:38;5.75;;;2.72;;
51312;SDS011;37397;53.226;10.400;2023-03-14T00:10:07;5.18;;;2.60;;
51312;SDS011;37397;53.226;10.400;2023-03-14T00:12:36;5.28;;;2.35;;
51312;SDS011;37397;53.226;10.400;2023-03-14T00:15:03;8.23;;;2.90;;
51312;SDS011;37397;53.226;10.400;2023-03-14T00:17:30;5.63;;;3.00;;
51312;SDS011;37397;53.226;10.400;2023-03-14T00:19:57;4.90;;;2.67;;
51312;SDS011;37397;53.226;10.400;2023-03-14T00:22:30;6.57;;;3.00;;
51312;SDS011;37397;53.226;10.400;2023-03-14T00:24:57;6.65;;;2.80;;
51312;SDS011;37397;53.226;10.400;2023-03-14T00:27:24;6.93;;;2.97;;
51312;SDS011;37397;53.226;10.400;2023-03-14T00:29:50;6.90;;;2.50;;
51312;SDS011;37397;53.226;10.400;2023-03-14T00:32:17;7.50;;;3.00;;
51312;SDS011;37397;53.226;10.400;2023-03-14T00:34:43;6.90;;;2.67;;
51312;SDS011;37397;53.226;10.400;2023-03-14T00:37:10;4.82;;;2.30;;
51312;SDS011;37397;53.226;10.400;2023-03-14T00:39:37;7.18;;;2.70;;
51312;SDS011;37397;53.226;10.400;2023-03-14T00:42:03;6.47;;;2.92;;
51312;SDS011;37397;53.226;10.400;2023-03-14T00:44:30;7.93;;;3.10;;
51312;SDS011;37397;53.226;10.400;2023-03-14T00:46:57;8.70;;;2.70;;
51312;SDS011;37397;53.226;10.400;2023-03-14T00:49:24;6.88;;;2.97;;
51312;SDS011;37397;53.226;10.400;2023-03-14T00:51:51;6.10;;;2.67;;
51312;SDS011;37397;53.226;10.400;2023-03-14T00:54:18;6.10;;;2.85;;
51312;SDS011;37397;53.226;10.400;2023-03-14T00:56:45;7.80;;;2.90;;
51312;SDS011;37397;53.226;10.400;2023-03-14T00:59:12;5.85;;;2.90;;
51312;SDS011;37397;53.226;10.400;2023-03-14T01:01:39;5.78;;;2.50;;
51312;SDS011;37397;53.226;10.400;2023-03-14T01:04:06;10.80;;;3.50;;
51312;SDS011;37397;53.226;10.400;2023-03-14T01:06:32;7.07;;;2.72;;
51312;SDS011;37397;53.226;10.400;2023-03-14T01:08:59;7.20;;;2.90;;
51312;SDS011;37397;53.226;10.400;2023-03-14T01:11:27;6.60;;;3.00;;
51312;SDS011;37397;53.226;10.400;2023-03-14T01:13:57;7.78;;;2.63;;
51312;SDS011;37397;53.226;10.400;2023-03-14T01:16:28;5.15;;;2.53;;
51312;SDS011;37397;53.226;10.400;2023-03-14T01:18:59;6.68;;;2.80;;
51312;SDS011;37397;53.226;10.400;2023-03-14T01:21:27;6.53;;;2.88;;
51312;SDS011;37397;53.226;10.400;2023-03-14T01:23:56;9.30;;;3.00;;
51312;SDS011;37397;53.226;10.400;2023-03-14T01:26:24;7.00;;;2.65;;
51312;SDS011;37397;53.226;10.400;2023-03-14T01:28:53;5.32;;;2.70;;
51312;SDS011;37397;53.226;10.400;2023-03-14T01:31:21;7.82;;;3.08;;
51312;SDS011;37397;53.226;10.400;2023-03-14T01:33:49;6.53;;;2.92;;
51312;SDS011;37397;53.226;10.400;2023-03-14T01:36:16;5.88;;;2.85;;
51312;SDS011;37397;53.226;10.400;2023-03-14T01:38:43;6.32;;;2.83;;
51312;SDS011;37397;53.226;10.400;2023-03-14T01:41:13;9.70;;;2.63;;
51312;SDS011;37397;53.226;10.400;2023-03-14T01:43:43;7.80;;;3.05;;
51312;SDS011;37397;53.226;10.400;2023-03-14T01:48:51;6.57;;;2.85;;
51312;SDS011;37397;53.226;10.400;2023-03-14T01:51:30;7.05;;;2.90;;
51312;SDS011;37397;53.226;10.400;2023-03-14T01:54:04;7.55;;;2.90;;
51312;SDS011;37397;53.226;10.400;2023-03-14T01:56:36;7.43;;;3.03;;
51312;SDS011;37397;53.226;10.400;2023-03-14T01:59:04;8.18;;;2.75;;
51312;SDS011;37397;53.226;10.400;2023-03-14T02:01:34;6.40;;;2.97;;
51312;SDS011;37397;53.226;10.400;2023-03-14T02:04:02;6.07;;;2.60;;
51312;SDS011;37397;53.226;10.400;2023-03-14T02:09:27;9.55;;;3.22;;
51312;SDS011;37397;53.226;10.400;2023-03-14T02:11:53;6.80;;;3.08;;
51312;SDS011;37397;53.226;10.400;2023-03-14T02:14:44;9.27;;;2.67;;
51312;SDS011;37397;53.226;10.400;2023-03-14T02:17:21;6.78;;;3.03;;
51312;SDS011;37397;53.226;10.400;2023-03-14T02:22:38;6.30;;;2.70;;
51312;SDS011;37397;53.226;10.400;2023-03-14T02:28:06;5.97;;;2.67;;
51312;SDS011;37397;53.226;10.400;2023-03-14T02:30:34;9.00;;;3.03;;
51312;SDS011;37397;53.226;10.400;2023-03-14T02:33:10;8.35;;;2.88;;
51312;SDS011;37397;53.226;10.400;2023-03-14T02:35:59;7.95;;;2.75;;
51312;SDS011;37397;53.226;10.400;2023-03-14T02:41:02;5.95;;;2.92;;
51312;SDS011;37397;53.226;10.400;2023-03-14T02:43:37;6.03;;;2.78;;
51312;SDS011;37397;53.226;10.400;2023-03-14T02:46:08;7.43;;;3.05;;
51312;SDS011;37397;53.226;10.400;2023-03-14T02:48:40;6.03;;;2.45;;
51312;SDS011;37397;53.226;10.400;2023-03-14T02:51:10;12.10;;;2.92;;
51312;SDS011;37397;53.226;10.400;2023-03-14T02:53:39;7.25;;;3.10;;
51312;SDS011;37397;53.226;10.400;2023-03-14T02:56:10;7.28;;;2.97;;
51312;SDS011;37397;53.226;10.400;2023-03-14T02:58:37;4.95;;;2.80;;
51312;SDS011;37397;53.226;10.400;2023-03-14T03:01:15;7.18;;;2.83;;
51312;SDS011;37397;53.226;10.400;2023-03-14T03:03:42;8.00;;;2.80;;
51312;SDS011;37397;53.226;10.400;2023-03-14T03:06:08;7.55;;;3.03;;
51312;SDS011;37397;53.226;10.400;2023-03-14T03:08:35;10.27;;;3.25;;
51312;SDS011;37397;53.226;10.400;2023-03-14T03:11:02;8.18;;;3.47;;
51312;SDS011;37397;53.226;10.400;2023-03-14T03:13:31;6.20;;;2.63;;
51312;SDS011;37397;53.226;10.400;2023-03-14T03:16:00;6.90;;;2.80;;
51312;SDS011;37397;53.226;10.400;2023-03-14T03:18:26;8.27;;;3.00;;
51312;SDS011;37397;53.226;10.400;2023-03-14T03:20:53;10.07;;;3.08;;
51312;SDS011;37397;53.226;10.400;2023-03-14T03:23:21;9.70;;;3.13;;
51312;SDS011;37397;53.226;10.400;2023-03-14T03:25:51;9.82;;;3.08;;
51312;SDS011;37397;53.226;10.400;2023-03-14T03:28:18;8.65;;;3.20;;
51312;SDS011;37397;53.226;10.400;2023-03-14T03:30:46;6.90;;;3.00;;
51312;SDS011;37397;53.226;10.400;2023-03-14T03:33:13;6.93;;;2.75;;
51312;SDS011;37397;53.226;10.400;2023-03-14T03:35:47;8.52;;;2.83;;
51312;SDS011;37397;53.226;10.400;2023-03-14T03:38:22;6.38;;;2.60;;
51312;SDS011;37397;53.226;10.400;2023-03-14T03:40:51;6.63;;;2.70;;
51312;SDS011;37397;53.226;10.400;2023-03-14T03:43:19;9.35;;;3.00;;
51312;SDS011;37397;53.226;10.400;2023-03-14T03:45:48;10.00;;;3.42;;
51312;SDS011;37397;53.226;10.400;2023-03-14T03:48:14;7.50;;;2.97;;
51312;SDS011;37397;53.226;10.400;2023-03-14T03:50:45;6.68;;;2.97;;
51312;SDS011;37397;53.226;10.400;2023-03-14T03:55:55;10.80;;;3.00;;
51312;SDS011;37397;53.226;10.400;2023-03-14T03:58:22;9.00;;;3.38;;
51312;SDS011;37397;53.226;10.400;2023-03-14T04:00:49;8.55;;;2.85;;
51312;SDS011;37397;53.226;10.400;2023-03-14T04:03:15;8.05;;;3.08;;
51312;SDS011;37397;53.226;10.400;2023-03-14T04:05:42;11.50;;;3.10;;
51312;SDS011;37397;53.226;10.400;2023-03-14T04:08:09;10.48;;;3.10;;
51312;SDS011;37397;53.226;10.400;2023-03-14T04:10:36;10.73;;;3.20;;
51312;SDS011;37397;53.226;10.400;2023-03-14T04:13:14;7.18;;;2.85;;
51312;SDS011;37397;53.226;10.400;2023-03-14T04:15:42;8.95;;;2.92;;
51312;SDS011;37397;53.226;10.400;2023-03-14T04:18:18;9.30;;;2.90;;
51312;SDS011;37397;53.226;10.400;2023-03-14T04:20:45;8.35;;;3.05;;
51312;SDS011;37397;53.226;10.400;2023-03-14T04:23:11;8.48;;;3.00;;
51312;SDS011;37397;53.226;10.400;2023-03-14T04:25:38;8.35;;;2.78;;
51312;SDS011;37397;53.226;10.400;2023-03-14T04:28:04;15.70;;;3.08;;
51312;SDS011;37397;53.226;10.400;2023-03-14T04:30:32;11.07;;;3.20;;
51312;SDS011;37397;53.226;10.400;2023-03-14T04:33:07;9.05;;;2.83;;
51312;SDS011;37397;53.226;10.400;2023-03-14T04:35:39;8.32;;;2.97;;
51312;SDS011;37397;53.226;10.400;2023-03-14T04:38:08;8.75;;;2.50;;
51312;SDS011;37397;53.226;10.400;2023-03-14T04:40:41;8.68;;;2.78;;
51312;SDS011;37397;53.226;10.400;2023-03-14T04:43:08;8.48;;;3.03;;
51312;SDS011;37397;53.226;10.400;2023-03-14T04:45:43;7.40;;;3.00;;
51312;SDS011;37397;53.226;10.400;2023-03-14T04:48:10;7.15;;;2.53;;
51312;SDS011;37397;53.226;10.400;2023-03-14T04:50:37;10.13;;;2.50;;
51312;SDS011;37397;53.226;10.400;2023-03-14T04:53:04;7.35;;;2.70;;
51312;SDS011;37397;53.226;10.400;2023-03-14T04:55:32;12.60;;;2.95;;
51312;SDS011;37397;53.226;10.400;2023-03-14T04:57:59;11.13;;;3.00;;
51312;SDS011;37397;53.226;10.400;2023-03-14T05:00:25;8.75;;;2.80;;
51312;SDS011;37397;53.226;10.400;2023-03-14T05:03:15;7.95;;;2.30;;
51312;SDS011;37397;53.226;10.400;2023-03-14T05:05:51;9.93;;;2.70;;
51312;SDS011;37397;53.226;10.400;2023-03-14T05:08:40;7.93;;;2.72;;
51312;SDS011;37397;53.226;10.400;2023-03-14T05:11:10;6.57;;;2.28;;
51312;SDS011;37397;53.226;10.400;2023-03-14T05:13:55;8.65;;;2.65;;
51312;SDS011;37397;53.226;10.400;2023-03-14T05:16:51;10.45;;;2.92;;
51312;SDS011;37397;53.226;10.400;2023-03-14T05:19:26;8.32;;;2.53;;
51312;SDS011;37397;53.226;10.400;2023-03-14T05:22:01;10.85;;;2.80;;
51312;SDS011;37397;53.226;10.400;2023-03-14T05:24:31;7.75;;;2.53;;
51312;SDS011;37397;53.226;10.400;2023-03-14T05:27:03;9.02;;;2.30;;
51312;SDS011;37397;53.226;10.400;2023-03-14T05:29:49;7.60;;;2.70;;
51312;SDS011;37397;53.226;10.400;2023-03-14T05:32:32;7.95;;;2.38;;
51312;SDS011;37397;53.226;10.400;2023-03-14T05:35:14;5.93;;;2.20;;
51312;SDS011;37397;53.226;10.400;2023-03-14T05:37:48;7.75;;;2.50;;
51312;SDS011;37397;53.226;10.400;2023-03-14T05:40:32;10.27;;;2.40;;
51312;SDS011;37397;53.226;10.400;2023-03-14T05:43:32;10.20;;;2.67;;
51312;SDS011;37397;53.226;10.400;2023-03-14T05:46:05;7.85;;;2.20;;
51312;SDS011;37397;53.226;10.400;2023-03-14T05:48:40;5.97;;;2.47;;
51312;SDS011;37397;53.226;10.400;2023-03-14T05:51:25;6.45;;;2.30;;
51312;SDS011;37397;53.226;10.400;2023-03-14T05:54:01;8.93;;;2.30;;
51312;SDS011;37397;53.226;10.400;2023-03-14T05:56:57;6.70;;;2.20;;
51312;SDS011;37397;53.226;10.400;2023-03-14T05:59:35;4.90;;;2.10;;
51312;SDS011;37397;53.226;10.400;2023-03-14T06:02:08;7.13;;;2.08;;
51312;SDS011;37397;53.226;10.400;2023-03-14T06:04:55;4.75;;;2.30;;
51312;SDS011;37397;53.226;10.400;2023-03-14T06:07:21;7.80;;;2.20;;
51312;SDS011;37397;53.226;10.400;2023-03-14T06:09:48;7.18;;;2.33;;
51312;SDS011;37397;53.226;10.400;2023-03-14T06:12:16;6.38;;;2.40;;
51312;SDS011;37397;53.226;10.400;2023-03-14T06:14:45;9.23;;;2.83;;
51312;SDS011;37397;53.226;10.400;2023-03-14T06:17:12;6.97;;;2.33;;
51312;SDS011;37397;53.226;10.400;2023-03-14T06:19:47;5.10;;;2.38;;
51312;SDS011;37397;53.226;10.400;2023-03-14T06:22:13;7.50;;;2.33;;
51312;SDS011;37397;53.226;10.400;2023-03-14T06:24:40;10.02;;;2.50;;
51312;SDS011;37397;53.226;10.400;2023-03-14T06:27:07;6.15;;;2.65;;
51312;SDS011;37397;53.226;10.400;2023-03-14T06:29:34;6.03;;;2.40;;
51312;SDS011;37397;53.226;10.400;2023-03-14T06:32:01;7.57;;;2.58;;
51312;SDS011;37397;53.226;10.400;2023-03-14T06:34:28;5.30;;;2.47;;
51312;SDS011;37397;53.226;10.400;2023-03-14T06:36:55;6.63;;;2.30;;
51312;SDS011;37397;53.226;10.400;2023-03-14T06:39:22;7.35;;;2.53;;
51312;SDS011;37397;53.226;10.400;2023-03-14T06:41:58;4.30;;;2.17;;
51312;SDS011;37397;53.226;10.400;2023-03-14T06:44:24;7.85;;;2.42;;
51312;SDS011;37397;53.226;10.400;2023-03-14T06:46:51;8.10;;;2.40;;
51312;SDS011;37397;53.226;10.400;2023-03-14T06:49:17;5.55;;;2.42;;
51312;SDS011;37397;53.226;10.400;2023-03-14T06:51:45;6.35;;;2.78;;
51312;SDS011;37397;53.226;10.400;2023-03-14T06:54:12;6.65;;;2.45;;
51312;SDS011;37397;53.226;10.400;2023-03-14T06:56:40;7.88;;;2.55;;
51312;SDS011;37397;53.226;10.400;2023-03-14T06:59:06;5.50;;;2.28;;
51312;SDS011;37397;53.226;10.400;2023-03-14T07:01:33;8.23;;;2.45;;
51312;SDS011;37397;53.226;10.400;2023-03-14T07:04:05;6.60;;;2.72;;
51312;SDS011;37397;53.226;10.400;2023-03-14T07:06:34;10.88;;;2.97;;
51312;SDS011;37397;53.226;10.400;2023-03-14T07:09:00;9.27;;;2.88;;
51312;SDS011;37397;53.226;10.400;2023-03-14T07:11:30;7.65;;;2.58;;
51312;SDS011;37397;53.226;10.400;2023-03-14T07:13:58;5.63;;;2.42;;
51312;SDS011;37397;53.226;10.400;2023-03-14T07:16:24;6.35;;;2.35;;
51312;SDS011;37397;53.226;10.400;2023-03-14T07:18:54;7.15;;;2.45;;
51312;SDS011;37397;53.226;10.400;2023-03-14T07:21:21;7.63;;;2.90;;
51312;SDS011;37397;53.226;10.400;2023-03-14T07:23:47;8.80;;;2.78;;
51312;SDS011;37397;53.226;10.400;2023-03-14T07:26:15;9.45;;;2.75;;
51312;SDS011;37397;53.226;10.400;2023-03-14T07:28:47;5.93;;;2.55;;
51312;SDS011;37397;53.226;10.400;2023-03-14T07:31:17;7.28;;;2.60;;
51312;SDS011;37397;53.226;10.400;2023-03-14T07:33:45;8.38;;;2.58;;
51312;SDS011;37397;53.226;10.400;2023-03-14T07:36:11;8.70;;;2.70;;
51312;SDS011;37397;53.226;10.400;2023-03-14T07:38:41;9.07;;;3.03;;
51312;SDS011;37397;53.226;10.400;2023-03-14T07:41:20;8.00;;;2.90;;
51312;SDS011;37397;53.226;10.400;2023-03-14T07:44:07;8.27;;;2.92;;
51312;SDS011;37397;53.226;10.400;2023-03-14T07:46:33;8.93;;;3.13;;
51312;SDS011;37397;53.226;10.400;2023-03-14T07:49:00;10.98;;;3.75;;
51312;SDS011;37397;53.226;10.400;2023-03-14T07:51:26;10.50;;;3.85;;
51312;SDS011;37397;53.226;10.400;2023-03-14T07:53:53;7.93;;;3.13;;
51312;SDS011;37397;53.226;10.400;2023-03-14T07:56:19;12.27;;;3.80;;
51312;SDS011;37397;53.226;10.400;2023-03-14T07:58:46;11.38;;;4.28;;
51312;SDS011;37397;53.226;10.400;2023-03-14T08:01:12;10.57;;;3.78;;
51312;SDS011;37397;53.226;10.400;2023-03-14T08:03:39;12.95;;;4.28;;
51312;SDS011;37397;53.226;10.400;2023-03-14T08:06:06;10.70;;;4.40;;
51312;SDS011;37397;53.226;10.400;2023-03-14T08:08:33;11.88;;;4.03;;
51312;SDS011;37397;53.226;10.400;2023-03-14T08:11:03;10.65;;;4.30;;
51312;SDS011;37397;53.226;10.400;2023-03-14T08:13:31;7.70;;;3.63;;
51312;SDS011;37397;53.226;10.400;2023-03-14T08:15:58;10.27;;;4.05;;
51312;SDS011;37397;53.226;10.400;2023-03-14T08:18:24;9.35;;;4.22;;
51312;SDS011;37397;53.226;10.400;2023-03-14T08:20:51;9.88;;;4.03;;
51312;SDS011;37397;53.226;10.400;2023-03-14T08:23:17;11.63;;;4.20;;
51312;SDS011;37397;53.226;10.400;2023-03-14T08:25:44;11.25;;;4.80;;
51312;SDS011;37397;53.226;10.400;2023-03-14T08:28:10;12.38;;;4.60;;
51312;SDS011;37397;53.226;10.400;2023-03-14T08:30:37;8.45;;;4.50;;
51312;SDS011;37397;53.226;10.400;2023-03-14T08:33:03;13.25;;;4.65;;
51312;SDS011;37397;53.226;10.400;2023-03-14T08:35:30;8.90;;;4.15;;
51312;SDS011;37397;53.226;10.400;2023-03-14T08:37:57;10.85;;;4.70;;
51312;SDS011;37397;53.226;10.400;2023-03-14T08:40:23;9.55;;;4.32;;
51312;SDS011;37397;53.226;10.400;2023-03-14T08:42:50;11.18;;;4.90;;
51312;SDS011;37397;53.226;10.400;2023-03-14T08:45:16;8.85;;;4.68;;
51312;SDS011;37397;53.226;10.400;2023-03-14T08:47:43;10.90;;;4.97;;
51312;SDS011;37397;53.226;10.400;2023-03-14T08:50:11;12.32;;;5.07;;
51312;SDS011;37397;53.226;10.400;2023-03-14T08:52:41;12.95;;;4.90;;
51312;SDS011;37397;53.226;10.400;2023-03-14T08:55:08;9.70;;;4.90;;
51312;SDS011;37397;53.226;10.400;2023-03-14T08:57:35;8.75;;;4.40;;
51312;SDS011;37397;53.226;10.400;2023-03-14T09:00:03;12.75;;;4.82;;
51312;SDS011;37397;53.226;10.400;2023-03-14T09:02:36;9.90;;;4.88;;
51312;SDS011;37397;53.226;10.400;2023-03-14T09:05:02;12.48;;;4.55;;
51312;SDS011;37397;53.226;10.400;2023-03-14T09:07:29;12.40;;;4.38;;
51312;SDS011;37397;53.226;10.400;2023-03-14T09:09:56;15.25;;;4.07;;
51312;SDS011;37397;53.226;10.400;2023-03-14T09:12:22;15.55;;;4.00;;
51312;SDS011;37397;53.226;10.400;2023-03-14T09:14:49;9.48;;;3.30;;
51312;SDS011;37397;53.226;10.400;2023-03-14T09:17:15;11.60;;;3.53;;
51312;SDS011;37397;53.226;10.400;2023-03-14T09:19:42;8.90;;;3.63;;
51312;SDS011;37397;53.226;10.400;2023-03-14T09:22:08;8.95;;;3.72;;
51312;SDS011;37397;53.226;10.400;2023-03-14T09:24:34;6.93;;;3.30;;
51312;SDS011;37397;53.226;10.400;2023-03-14T09:27:01;8.10;;;3.33;;
51312;SDS011;37397;53.226;10.400;2023-03-14T09:29:28;7.85;;;3.25;;
51312;SDS011;37397;53.226;10.400;2023-03-14T09:31:54;9.55;;;3.20;;
51312;SDS011;37397;53.226;10.400;2023-03-14T09:34:21;7.90;;;2.85;;
51312;SDS011;37397;53.226;10.400;2023-03-14T09:36:48;9.02;;;3.00;;
51312;SDS011;37397;53.226;10.400;2023-03-14T09:39:14;6.40;;;2.50;;
51312;SDS011;37397;53.226;10.400;2023-03-14T09:41:42;6.68;;;2.38;;
51312;SDS011;37397;53.226;10.400;2023-03-14T09:44:27;8.52;;;2.67;;
51312;SDS011;37397;53.226;10.400;2023-03-14T09:46:58;8.15;;;2.72;;
51312;SDS011;37397;53.226;10.400;2023-03-14T09:49:30;6.75;;;2.20;;
51312;SDS011;37397;53.226;10.400;2023-03-14T09:52:00;8.60;;;2.67;;
51312;SDS011;37397;53.226;10.400;2023-03-14T09:54:32;6.25;;;2.47;;
51312;SDS011;37397;53.226;10.400;2023-03-14T09:57:02;7.72;;;2.15;;
51312;SDS011;37397;53.226;10.400;2023-03-14T09:59:31;7.43;;;1.92;;
51312;SDS011;37397;53.226;10.400;2023-03-14T10:02:02;4.85;;;1.98;;
51312;SDS011;37397;53.226;10.400;2023-03-14T10:04:40;4.97;;;1.95;;
51312;SDS011;37397;53.226;10.400;2023-03-14T10:07:17;5.80;;;2.30;;
51312;SDS011;37397;53.226;10.400;2023-03-14T10:09:48;4.75;;;1.73;;
51312;SDS011;37397;53.226;10.400;2023-03-14T10:12:17;4.68;;;2.00;;
51312;SDS011;37397;53.226;10.400;2023-03-14T10:14:49;5.65;;;1.63;;
51312;SDS011;37397;53.226;10.400;2023-03-14T10:17:18;5.72;;;2.00;;
51312;SDS011;37397;53.226;10.400;2023-03-14T10:19:53;3.92;;;1.63;;
51312;SDS011;37397;53.226;10.400;2023-03-14T10:22:26;5.85;;;2.00;;
51312;SDS011;37397;53.226;10.400;2023-03-14T10:24:57;4.75;;;1.73;;
51312;SDS011;37397;53.226;10.400;2023-03-14T10:27:31;6.43;;;1.83;;
51312;SDS011;37397;53.226;10.400;2023-03-14T10:30:06;6.15;;;2.00;;
51312;SDS011;37397;53.226;10.400;2023-03-14T10:32:52;6.80;;;1.63;;
51312;SDS011;37397;53.226;10.400;2023-03-14T10:35:20;4.68;;;1.83;;
51312;SDS011;37397;53.226;10.400;2023-03-14T10:38:01;2.60;;;1.50;;
51312;SDS011;37397;53.226;10.400;2023-03-14T10:40:33;3.88;;;1.50;;
51312;SDS011;37397;53.226;10.400;2023-03-14T10:43:04;2.95;;;1.42;;
51312;SDS011;37397;53.226;10.400;2023-03-14T10:48:06;3.25;;;1.10;;
51312;SDS011;37397;53.226;10.400;2023-03-14T10:50:48;2.83;;;1.30;;
51312;SDS011;37397;53.226;10.400;2023-03-14T10:53:20;2.72;;;1.10;;
51312;SDS011;37397;53.226;10.400;2023-03-14T10:55:47;2.58;;;1.30;;
51312;SDS011;37397;53.226;10.400;2023-03-14T10:58:22;2.33;;;1.25;;
51312;SDS011;37397;53.226;10.400;2023-03-14T11:03:41;4.22;;;1.40;;
51312;SDS011;37397;53.226;10.400;2023-03-14T11:06:18;2.83;;;1.27;;
51312;SDS011;37397;53.226;10.400;2023-03-14T11:11:24;2.22;;;1.20;;
51312;SDS011;37397;53.226;10.400;2023-03-14T11:16:57;2.42;;;1.20;;
51312;SDS011;37397;53.226;10.400;2023-03-14T11:19:32;2.28;;;1.40;;
51312;SDS011;37397;53.226;10.400;2023-03-14T11:27:44;5.80;;;2.05;;
51312;SDS011;37397;53.226;10.400;2023-03-14T11:30:18;3.70;;;2.40;;
51312;SDS011;37397;53.226;10.400;2023-03-14T11:32:56;3.92;;;2.80;;
51312;SDS011;37397;53.226;10.400;2023-03-14T11:35:30;5.38;;;3.08;;
51312;SDS011;37397;53.226;10.400;2023-03-14T11:40:46;7.18;;;3.47;;
51312;SDS011;37397;53.226;10.400;2023-03-14T11:43:59;7.90;;;4.00;;
51312;SDS011;37397;53.226;10.400;2023-03-14T11:46:10;4.88;;;2.83;;
51312;SDS011;37397;53.226;10.400;2023-03-14T11:48:55;3.90;;;2.20;;
51312;SDS011;37397;53.226;10.400;2023-03-14T11:51:29;2.75;;;1.30;;
51312;SDS011;37397;53.226;10.400;2023-03-14T11:54:14;1.95;;;0.90;;
51312;SDS011;37397;53.226;10.400;2023-03-14T11:56:51;2.25;;;1.15;;
51312;SDS011;37397;53.226;10.400;2023-03-14T11:59:21;2.15;;;1.10;;
51312;SDS011;37397;53.226;10.400;2023-03-14T12:05:15;3.08;;;1.30;;
51312;SDS011;37397;53.226;10.400;2023-03-14T12:13:18;2.47;;;1.25;;
51312;SDS011;37397;53.226;10.400;2023-03-14T12:15:50;4.90;;;1.52;;
51312;SDS011;37397;53.226;10.400;2023-03-14T12:18:28;4.15;;;1.67;;
51312;SDS011;37397;53.226;10.400;2023-03-14T12:21:00;6.28;;;1.90;;
51312;SDS011;37397;53.226;10.400;2023-03-14T12:23:34;3.70;;;1.60;;
51312;SDS011;37397;53.226;10.400;2023-03-14T12:26:26;3.55;;;1.40;;
51312;SDS011;37397;53.226;10.400;2023-03-14T12:34:24;6.45;;;1.85;;
51312;SDS011;37397;53.226;10.400;2023-03-14T12:36:59;6.55;;;1.73;;
51312;SDS011;37397;53.226;10.400;2023-03-14T12:39:47;6.85;;;1.70;;
51312;SDS011;37397;53.226;10.400;2023-03-14T12:50:46;6.15;;;1.48;;
51312;SDS011;37397;53.226;10.400;2023-03-14T12:53:41;6.45;;;1.67;;
51312;SDS011;37397;53.226;10.400;2023-03-14T12:59:30;7.30;;;1.58;;
51312;SDS011;37397;53.226;10.400;2023-03-14T13:02:00;8.57;;;1.73;;
51312;SDS011;37397;53.226;10.400;2023-03-14T13:04:33;6.00;;;2.00;;
51312;SDS011;37397;53.226;10.400;2023-03-14T13:09:55;8.95;;;2.22;;
51312;SDS011;37397;53.226;10.400;2023-03-14T13:12:28;7.28;;;2.05;;
51312;SDS011;37397;53.226;10.400;2023-03-14T13:14:59;9.18;;;2.20;;
51312;SDS011;37397;53.226;10.400;2023-03-14T13:17:28;11.55;;;2.75;;
51312;SDS011;37397;53.226;10.400;2023-03-14T13:20:10;10.02;;;2.40;;
51312;SDS011;37397;53.226;10.400;2023-03-14T13:22:45;10.52;;;2.22;;
51312;SDS011;37397;53.226;10.400;2023-03-14T13:25:12;10.45;;;2.67;;
51312;SDS011;37397;53.226;10.400;2023-03-14T13:27:39;14.45;;;3.20;;
51312;SDS011;37397;53.226;10.400;2023-03-14T13:32:43;11.07;;;2.53;;
51312;SDS011;37397;53.226;10.400;2023-03-14T13:35:24;8.45;;;2.47;;
51312;SDS011;37397;53.226;10.400;2023-03-14T13:37:55;11.18;;;2.38;;
51312;SDS011;37397;53.226;10.400;2023-03-14T13:40:37;11.15;;;2.58;;
51312;SDS011;37397;53.226;10.400;2023-03-14T13:43:12;11.70;;;3.25;;
51312;SDS011;37397;53.226;10.400;2023-03-14T13:45:49;12.27;;;2.65;;
51312;SDS011;37397;53.226;10.400;2023-03-14T13:48:18;10.82;;;2.72;;
51312;SDS011;37397;53.226;10.400;2023-03-14T13:50:46;11.57;;;3.00;;
51312;SDS011;37397;53.226;10.400;2023-03-14T13:53:17;13.13;;;2.92;;
51312;SDS011;37397;53.226;10.400;2023-03-14T13:55:44;14.10;;;3.05;;
51312;SDS011;37397;53.226;10.400;2023-03-14T13:58:29;18.45;;;3.38;;
51312;SDS011;37397;53.226;10.400;2023-03-14T14:00:58;16.75;;;3.63;;
51312;SDS011;37397;53.226;10.400;2023-03-14T14:03:29;14.90;;;3.08;;
51312;SDS011;37397;53.226;10.400;2023-03-14T14:06:02;21.88;;;3.80;;
51312;SDS011;37397;53.226;10.400;2023-03-14T14:08:31;14.55;;;3.45;;
51312;SDS011;37397;53.226;10.400;2023-03-14T14:10:58;21.77;;;3.85;;
51312;SDS011;37397;53.226;10.400;2023-03-14T14:13:27;18.48;;;3.97;;
51312;SDS011;37397;53.226;10.400;2023-03-14T14:15:57;22.60;;;4.32;;
51312;SDS011;37397;53.226;10.400;2023-03-14T14:18:27;18.20;;;3.70;;
51312;SDS011;37397;53.226;10.400;2023-03-14T14:20:55;19.00;;;2.90;;
51312;SDS011;37397;53.226;10.400;2023-03-14T14:23:24;15.20;;;2.80;;
51312;SDS011;37397;53.226;10.400;2023-03-14T14:25:56;17.90;;;3.00;;
51312;SDS011;37397;53.226;10.400;2023-03-14T14:28:30;17.67;;;2.70;;
51312;SDS011;37397;53.226;10.400;2023-03-14T14:34:18;20.42;;;3.08;;
51312;SDS011;37397;53.226;10.400;2023-03-14T14:36:39;15.10;;;2.80;;
51312;SDS011;37397;53.226;10.400;2023-03-14T14:39:20;13.85;;;2.92;;
51312;SDS011;37397;53.226;10.400;2023-03-14T14:41:50;14.75;;;3.17;;
51312;SDS011;37397;53.226;10.400;2023-03-14T14:44:20;12.48;;;2.92;;
51312;SDS011;37397;53.226;10.400;2023-03-14T14:46:55;13.55;;;2.78;;
51312;SDS011;37397;53.226;10.400;2023-03-14T14:49:29;15.63;;;2.85;;
51312;SDS011;37397;53.226;10.400;2023-03-14T14:52:01;15.32;;;3.20;;
51312;SDS011;37397;53.226;10.400;2023-03-14T14:54:34;14.68;;;3.70;;
51312;SDS011;37397;53.226;10.400;2023-03-14T14:57:05;13.68;;;3.20;;
51312;SDS011;37397;53.226;10.400;2023-03-14T14:59:42;14.43;;;2.70;;
51312;SDS011;37397;53.226;10.400;2023-03-14T15:02:44;13.55;;;2.42;;
51312;SDS011;37397;53.226;10.400;2023-03-14T15:05:12;15.43;;;3.33;;
51312;SDS011;37397;53.226;10.400;2023-03-14T15:07:40;17.77;;;2.75;;
51312;SDS011;37397;53.226;10.400;2023-03-14T15:10:09;19.35;;;3.22;;
51312;SDS011;37397;53.226;10.400;2023-03-14T15:12:37;16.00;;;2.50;;
51312;SDS011;37397;53.226;10.400;2023-03-14T15:15:03;17.23;;;2.80;;
51312;SDS011;37397;53.226;10.400;2023-03-14T15:17:30;14.32;;;2.95;;
51312;SDS011;37397;53.226;10.400;2023-03-14T15:19:57;14.45;;;2.30;;
51312;SDS011;37397;53.226;10.400;2023-03-14T15:22:24;9.23;;;2.30;;
51312;SDS011;37397;53.226;10.400;2023-03-14T15:24:51;11.07;;;2.58;;
51312;SDS011;37397;53.226;10.400;2023-03-14T15:27:17;9.95;;;2.35;;
51312;SDS011;37397;53.226;10.400;2023-03-14T15:29:44;14.90;;;2.35;;
51312;SDS011;37397;53.226;10.400;2023-03-14T15:32:11;17.08;;;2.90;;
51312;SDS011;37397;53.226;10.400;2023-03-14T15:34:40;10.80;;;2.28;;
51312;SDS011;37397;53.226;10.400;2023-03-14T15:37:14;14.15;;;2.53;;
51312;SDS011;37397;53.226;10.400;2023-03-14T15:39:42;14.95;;;2.50;;
51312;SDS011;37397;53.226;10.400;2023-03-14T15:42:09;11.27;;;2.50;;
51312;SDS011;37397;53.226;10.400;2023-03-14T15:44:36;17.60;;;2.80;;
51312;SDS011;37397;53.226;10.400;2023-03-14T15:47:02;13.75;;;2.35;;
51312;SDS011;37397;53.226;10.400;2023-03-14T15:49:29;12.63;;;2.60;;
51312;SDS011;37397;53.226;10.400;2023-03-14T15:51:55;12.07;;;2.40;;
51312;SDS011;37397;53.226;10.400;2023-03-14T15:54:24;8.73;;;2.00;;
51312;SDS011;37397;53.226;10.400;2023-03-14T15:56:55;12.38;;;2.45;;
51312;SDS011;37397;53.226;10.400;2023-03-14T15:59:22;8.00;;;2.33;;
51312;SDS011;37397;53.226;10.400;2023-03-14T16:01:49;12.90;;;2.63;;